Time;durP1;ratioP1;P1;durP2;ratioP2;P2;SDS_P1;SDS_P2;PMS_P1;PMS_P2;Temp;Humidity;BMP_temperature;BMP_pressure;BME280_temperature;BME280_humidity;BME280_pressure;Samples;Min_cycle;Max_cycle;Signal;HPM_P1;HPM_P2
2023/03/25 00:00:24;;;;;;;1.80;1.20;;;;;;;10.59;89.24;98040.13;5094356;28;40130;-77
2023/03/25 00:02:52;;;;;;;3.17;1.07;;;;;;;10.63;89.28;98030.97;5093792;28;41772;-77
2023/03/25 00:05:22;;;;;;;2.03;1.00;;;;;;;10.60;89.52;98033.03;5092353;28;43815;-77
2023/03/25 00:07:52;;;;;;;4.13;1.20;;;;;;;10.50;89.57;98018.81;5092083;28;41694;-78
2023/03/25 00:10:21;;;;;;;3.10;1.10;;;;;;;10.62;89.72;98045.22;5092478;28;39608;-76
2023/03/25 00:12:49;;;;;;;1.63;1.13;;;;;;;10.50;89.96;98018.81;5075251;28;41874;-78
2023/03/25 00:15:17;;;;;;;2.93;1.50;;;;;;;10.36;90.08;98002.16;5075479;28;42355;-78
2023/03/25 00:17:45;;;;;;;2.40;1.30;;;;;;;10.60;90.63;98033.03;5075313;28;40955;-77
2023/03/25 00:20:13;;;;;;;2.77;1.90;;;;;;;10.50;92.09;98030.25;5091651;28;39799;-77
2023/03/25 00:22:42;;;;;;;2.70;1.60;;;;;;;10.50;91.76;98024.09;5092142;28;40746;-77
2023/03/25 00:25:15;;;;;;;4.57;2.20;;;;;;;10.48;92.18;98010.97;5092093;28;42788;-77
2023/03/25 00:27:45;;;;;;;6.27;1.50;;;;;;;10.50;92.03;98005.56;5075449;28;41254;-77
2023/03/25 00:30:13;;;;;;;1.83;1.30;;;;;;;10.52;91.68;98011.56;5092089;28;41264;-77
2023/03/25 00:32:44;;;;;;;3.73;1.43;;;;;;;10.47;90.87;98008.44;5074784;28;40769;-77
2023/03/25 00:35:18;;;;;;;1.83;1.10;;;;;;;10.36;91.03;98015.41;5088794;28;43555;-77
2023/03/25 00:37:46;;;;;;;2.67;1.00;;;;;;;10.28;90.24;98011.63;5074923;28;41448;-77
2023/03/25 00:40:14;;;;;;;2.20;1.17;;;;;;;10.19;90.03;98015.81;5075220;28;38668;-77
2023/03/25 00:42:48;;;;;;;0.87;0.80;;;;;;;10.12;90.00;98009.25;5075233;28;40767;-78
2023/03/25 00:45:16;;;;;;;1.93;0.97;;;;;;;10.05;90.34;98000.06;5075204;28;42637;-77
2023/03/25 00:47:44;;;;;;;1.73;1.00;;;;;;;10.00;89.94;97999.59;5091770;28;42052;-78
2023/03/25 00:50:12;;;;;;;2.17;1.00;;;;;;;9.93;89.96;97987.75;5092305;28;40880;-78
2023/03/25 00:52:40;;;;;;;4.23;0.97;;;;;;;9.89;90.13;97992.41;5074672;28;42197;-78
2023/03/25 00:55:08;;;;;;;1.40;1.00;;;;;;;9.84;90.26;97999.00;5092013;28;41872;-77
2023/03/25 00:57:36;;;;;;;1.83;0.90;;;;;;;9.87;90.27;97998.78;5074641;28;41321;-78
2023/03/25 01:00:08;;;;;;;3.43;1.00;;;;;;;9.85;90.32;97992.78;5090412;28;41042;-77
2023/03/25 01:02:39;;;;;;;1.67;0.90;;;;;;;9.71;90.20;97972.63;5075251;28;40676;-78
2023/03/25 01:05:09;;;;;;;1.60;0.83;;;;;;;9.77;90.67;97997.78;5074390;28;41876;-78
2023/03/25 01:07:37;;;;;;;1.80;0.90;;;;;;;9.71;90.79;97997.25;5091491;28;41265;-77
2023/03/25 01:10:07;;;;;;;1.27;1.13;;;;;;;9.67;91.39;97987.84;5074460;28;39572;-78
2023/03/25 01:12:35;;;;;;;1.27;1.00;;;;;;;9.55;91.87;97970.25;5091201;28;41799;-78
2023/03/25 01:15:03;;;;;;;1.07;0.77;;;;;;;9.49;92.44;97954.84;5074393;28;42699;-76
2023/03/25 01:17:32;;;;;;;2.20;1.33;;;;;;;9.80;91.66;97979.03;5074477;28;41117;-76
2023/03/25 01:20:00;;;;;;;1.70;1.13;;;;;;;9.90;91.34;97983.53;5090771;28;39951;-77
2023/03/25 01:22:28;;;;;;;1.67;1.20;;;;;;;9.96;91.18;97982.25;5091040;28;41640;-77
2023/03/25 01:24:56;;;;;;;2.60;1.10;;;;;;;10.05;90.42;97994.78;5090937;28;42802;-78
2023/03/25 01:27:24;;;;;;;2.53;1.10;;;;;;;10.09;89.52;97980.38;5091028;28;42351;-78
2023/03/25 01:29:53;;;;;;;1.53;1.20;;;;;;;10.14;89.59;97969.47;5091450;28;40875;-78
2023/03/25 01:32:21;;;;;;;1.47;1.07;;;;;;;10.16;88.88;97984.25;5091272;28;41763;-78
2023/03/25 01:34:50;;;;;;;1.60;1.03;;;;;;;10.11;88.10;97986.41;5091099;28;41679;-78
2023/03/25 01:37:18;;;;;;;2.23;1.20;;;;;;;9.99;87.78;97982.03;5090602;28;42291;-76
2023/03/25 01:39:46;;;;;;;2.40;1.00;;;;;;;9.99;88.15;97987.31;5090724;28;38838;-77
2023/03/25 01:42:14;;;;;;;1.33;1.00;;;;;;;9.98;88.05;97997.06;5090667;28;40613;-78
2023/03/25 01:45:15;;;;;;;1.63;1.00;;;;;;;9.91;88.36;98001.09;5074113;28;41972;-78
2023/03/25 01:47:44;;;;;;;2.07;1.03;;;;;;;9.87;88.09;97990.88;5090479;28;42202;-78
2023/03/25 01:50:14;;;;;;;1.40;0.80;;;;;;;9.81;88.14;97996.59;5074010;28;39510;-77
2023/03/25 01:52:45;;;;;;;1.00;0.90;;;;;;;9.75;88.06;97986.47;5073654;28;40633;-77
2023/03/25 01:55:14;;;;;;;1.03;0.70;;;;;;;9.65;87.69;97989.75;5087802;28;42428;-77
2023/03/25 01:57:45;;;;;;;1.53;0.90;;;;;;;9.61;87.74;97985.69;5090977;28;42263;-78
2023/03/25 02:00:15;;;;;;;2.20;1.17;;;;;;;9.35;87.79;97949.72;5087846;28;40100;-77
2023/03/25 02:02:44;;;;;;;1.80;0.93;;;;;;;9.46;86.90;97978.84;5073745;28;41234;-77
2023/03/25 02:05:20;;;;;;;2.97;1.00;;;;;;;9.50;86.50;97998.81;5091657;28;42816;-77
2023/03/25 02:07:49;;;;;;;1.67;0.90;;;;;;;9.45;86.48;98005.38;5089856;28;42206;-77
2023/03/25 02:10:18;;;;;;;3.03;0.90;;;;;;;9.40;86.66;97995.13;5091173;28;40223;-78
2023/03/25 02:12:46;;;;;;;2.57;0.80;;;;;;;9.38;86.48;98002.34;5077289;28;41014;-77
2023/03/25 02:15:17;;;;;;;3.33;0.90;;;;;;;9.21;86.33;97977.09;5077278;28;43436;-77
2023/03/25 02:18:04;;;;;;;4.83;1.10;;;;;;;9.34;86.21;97990.28;5093494;28;43372;-77
2023/03/25 02:20:53;;;;;;;1.43;0.90;;;;;;;9.32;86.36;97992.19;5076761;28;39430;-78
2023/03/25 02:23:56;;;;;;;2.80;1.43;;;;;;;9.31;86.23;97990.50;5094108;28;42730;-78
2023/03/25 02:27:13;;;;;;;0.80;0.80;;;;;;;9.31;85.62;97991.34;5077132;28;41760;-77
2023/03/25 02:30:07;;;;;;;4.07;0.80;;;;;;;9.32;85.90;97987.75;5077455;28;41580;-78
2023/03/25 02:32:52;;;;;;;3.17;0.80;;;;;;;9.31;85.53;97994.00;5076850;28;39187;-78
2023/03/25 02:35:37;;;;;;;3.20;1.43;;;;;;;9.27;84.90;97989.06;5077278;28;41757;-78
2023/03/25 02:38:28;;;;;;;3.60;1.30;;;;;;;9.13;85.00;97966.25;5077053;28;42653;-77
2023/03/25 02:41:01;;;;;;;3.23;0.97;;;;;;;9.23;84.87;97995.50;5090299;28;42473;-78
2023/03/25 02:43:34;;;;;;;3.03;0.90;;;;;;;9.24;84.83;97998.03;5094042;28;41032;-77
2023/03/25 02:46:08;;;;;;;1.37;0.70;;;;;;;9.21;84.54;97989.47;5091006;28;41506;-77
2023/03/25 02:48:41;;;;;;;2.37;1.10;;;;;;;9.35;84.15;97997.25;5091022;28;42982;-77
2023/03/25 02:51:14;;;;;;;2.87;1.00;;;;;;;9.42;84.13;97998.50;5076928;28;41196;-77
2023/03/25 02:53:48;;;;;;;1.03;0.70;;;;;;;9.42;83.57;98001.16;5091586;28;40037;-78
2023/03/25 02:56:21;;;;;;;4.80;0.80;;;;;;;9.53;83.50;98011.78;5077552;28;41679;-77
2023/03/25 02:58:50;;;;;;;2.30;0.80;;;;;;;9.52;83.36;97994.25;5090608;28;42490;-77
2023/03/25 03:01:21;;;;;;;1.93;0.80;;;;;;;9.71;83.29;98013.13;5076338;28;41223;-79
2023/03/25 03:03:49;;;;;;;2.27;0.80;;;;;;;9.64;83.66;97993.34;5076960;28;38973;-77
2023/03/25 03:06:18;;;;;;;2.20;0.80;;;;;;;9.68;84.26;98004.56;5093142;28;41701;-77
2023/03/25 03:09:04;;;;;;;1.63;1.20;;;;;;;9.67;84.98;98006.38;5093474;28;43529;-77
2023/03/25 03:11:40;;;;;;;4.20;1.37;;;;;;;9.65;86.38;97995.06;5076507;28;41635;-77
2023/03/25 03:14:31;;;;;;;1.93;1.37;;;;;;;9.52;87.06;97983.66;5090366;28;40235;-76
2023/03/25 03:17:07;;;;;;;2.00;1.03;;;;;;;9.47;88.42;97991.09;5091234;28;41917;-77
2023/03/25 03:19:39;;;;;;;2.33;0.90;;;;;;;9.36;89.71;97977.81;5076166;28;42020;-78
2023/03/25 03:22:20;;;;;;;4.10;1.07;;;;;;;9.47;89.13;97991.09;5091915;28;42199;-77
2023/03/25 03:24:52;;;;;;;2.70;0.80;;;;;;;9.52;90.13;97994.25;5093484;28;38908;-78
2023/03/25 03:27:32;;;;;;;2.47;1.13;;;;;;;9.47;89.95;97991.09;5093034;28;42737;-78
2023/03/25 03:30:09;;;;;;;3.17;0.90;;;;;;;9.54;90.76;98013.47;5076126;28;42854;-78
2023/03/25 03:32:42;;;;;;;2.97;0.80;;;;;;;9.39;89.17;98019.88;5076194;28;41059;-77
2023/03/25 03:35:16;;;;;;;2.13;0.37;;;;;;;9.27;88.68;98010.19;5090071;28;40866;-77
2023/03/25 03:37:50;;;;;;;1.20;0.60;;;;;;;9.08;88.94;97999.22;5093174;28;41748;-77
2023/03/25 03:40:24;;;;;;;1.40;0.40;;;;;;;9.09;88.61;98000.91;5093336;28;42006;-77
2023/03/25 03:42:57;;;;;;;0.80;0.37;;;;;;;8.94;88.63;97966.69;5092574;28;41388;-77
2023/03/25 03:45:29;;;;;;;1.07;0.40;;;;;;;8.94;88.27;97997.53;5090750;28;39889;-77
2023/03/25 03:48:00;;;;;;;1.17;0.37;;;;;;;8.76;88.01;97972.41;5076281;28;40577;-78
2023/03/25 03:50:31;;;;;;;0.67;0.40;;;;;;;8.38;88.33;97919.66;5076477;28;42813;-77
2023/03/25 03:53:03;;;;;;;1.47;0.57;;;;;;;8.73;88.58;97989.31;5075348;28;42230;-77
2023/03/25 03:55:38;;;;;;;0.30;0.30;;;;;;;8.69;88.58;97986.97;5091370;28;39889;-78
2023/03/25 03:58:11;;;;;;;1.93;0.40;;;;;;;8.61;88.33;97992.78;5092736;28;41720;-77
2023/03/25 04:00:48;;;;;;;1.47;0.30;;;;;;;8.51;88.58;97984.66;5076191;28;42714;-78
2023/03/25 04:03:23;;;;;;;0.30;0.30;;;;;;;8.49;88.50;97994.47;5092895;28;41914;-77
2023/03/25 04:05:58;;;;;;;1.60;0.50;;;;;;;8.41;88.86;97994.13;5076117;28;39187;-80
2023/03/25 04:08:35;;;;;;;0.57;0.50;;;;;;;8.30;88.70;97992.19;5092290;28;40960;-77
2023/03/25 04:11:10;;;;;;;0.47;0.30;;;;;;;8.32;88.83;98009.72;5090766;28;42975;-77
2023/03/25 04:13:42;;;;;;;0.97;0.40;;;;;;;8.05;88.74;97975.44;5089429;28;42301;-78
2023/03/25 04:16:10;;;;;;;0.53;0.30;;;;;;;8.38;89.05;98027.81;5075817;28;38921;-78
2023/03/25 04:18:38;;;;;;;0.70;0.50;;;;;;;8.40;89.38;98044.38;5075880;28;40657;-78
2023/03/25 04:21:06;;;;;;;0.47;0.40;;;;;;;8.42;89.08;98038.03;5074522;28;41329;-77
2023/03/25 04:23:36;;;;;;;0.83;0.30;;;;;;;8.42;89.08;98045.09;5093810;28;42011;-78
2023/03/25 04:26:06;;;;;;;1.00;0.40;;;;;;;8.38;89.00;98047.13;5075391;28;40852;-77
2023/03/25 04:28:35;;;;;;;1.77;0.63;;;;;;;8.40;89.25;98044.38;5093758;28;41499;-76
2023/03/25 04:31:06;;;;;;;1.90;0.57;;;;;;;8.46;88.95;98049.22;5075408;28;41556;-78
2023/03/25 04:33:34;;;;;;;1.47;0.67;;;;;;;8.51;88.17;98041.88;5075394;28;40882;-78
2023/03/25 04:36:02;;;;;;;2.53;0.53;;;;;;;8.57;87.71;98046.72;5075149;28;39228;-78
2023/03/25 04:38:30;;;;;;;2.17;0.57;;;;;;;8.58;86.94;98051.91;5091617;28;41486;-77
2023/03/25 04:40:59;;;;;;;1.13;0.60;;;;;;;8.57;87.09;98044.06;5091961;28;41662;-78
2023/03/25 04:43:28;;;;;;;1.43;0.80;;;;;;;8.64;86.62;98045.38;5075098;28;42429;-78
2023/03/25 04:45:58;;;;;;;0.60;0.50;;;;;;;8.71;86.18;98049.28;5075090;28;39868;-77
2023/03/25 04:48:29;;;;;;;1.30;0.90;;;;;;;8.76;85.86;98052.47;5074995;28;41505;-78
2023/03/25 04:50:58;;;;;;;1.73;0.60;;;;;;;8.82;85.25;98062.59;5092393;28;43591;-78
2023/03/25 04:53:26;;;;;;;4.60;0.80;;;;;;;8.85;85.23;98046.53;5091722;28;42462;-78
2023/03/25 04:55:55;;;;;;;5.27;0.80;;;;;;;8.82;85.23;98062.59;5091915;28;39021;-78
2023/03/25 04:58:23;;;;;;;3.67;0.93;;;;;;;8.86;84.44;98061.44;5092714;28;41793;-78
2023/03/25 05:00:53;;;;;;;0.80;0.50;;;;;;;8.86;83.97;98058.78;5074774;28;41737;-78
2023/03/25 05:03:22;;;;;;;2.33;0.70;;;;;;;8.90;83.86;98062.09;5074844;28;41273;-78
2023/03/25 05:05:50;;;;;;;2.87;0.90;;;;;;;8.89;83.51;98063.88;5074916;28;39088;-78
2023/03/25 05:08:20;;;;;;;3.37;0.90;;;;;;;8.93;81.99;98064.50;5092852;28;41728;-81
2023/03/25 05:10:48;;;;;;;4.20;0.70;;;;;;;8.91;81.60;98069.88;5092948;28;43584;-78
2023/03/25 05:13:16;;;;;;;3.07;0.67;;;;;;;8.92;81.80;98079.47;5074382;28;42398;-78
2023/03/25 05:15:44;;;;;;;4.27;0.70;;;;;;;8.96;81.50;98086.25;5092938;28;41237;-79
2023/03/25 05:18:15;;;;;;;2.10;0.87;;;;;;;8.95;80.68;98084.56;5091789;28;41575;-79
2023/03/25 05:20:45;;;;;;;1.23;0.77;;;;;;;8.94;80.36;98077.59;5074598;28;41524;-80
2023/03/25 05:23:16;;;;;;;1.77;0.80;;;;;;;8.94;79.60;98072.31;5091076;28;42226;-78
2023/03/25 05:25:44;;;;;;;1.13;0.70;;;;;;;8.79;80.35;98062.78;5075149;28;38733;-78
2023/03/25 05:28:13;;;;;;;3.23;0.80;;;;;;;8.81;80.03;98073.25;5074397;28;41136;-78
2023/03/25 05:30:42;;;;;;;4.67;0.80;;;;;;;8.80;79.93;98080.31;5074455;28;41700;-81
2023/03/25 05:33:10;;;;;;;3.60;0.90;;;;;;;8.74;80.07;98078.09;5074620;28;40807;-78
2023/03/25 05:35:40;;;;;;;1.70;0.60;;;;;;;8.78;80.16;98092.78;5091523;28;40048;-79
2023/03/25 05:38:08;;;;;;;2.23;0.63;;;;;;;8.79;79.75;98078.63;5090700;28;41836;-79
2023/03/25 05:40:36;;;;;;;3.30;0.67;;;;;;;8.94;80.39;98090.78;5074127;28;41654;-78
2023/03/25 05:43:05;;;;;;;1.23;0.70;;;;;;;9.00;78.88;98082.47;5091012;28;42290;-79
2023/03/25 05:45:34;;;;;;;2.20;0.63;;;;;;;9.22;78.38;98096.84;5073913;28;39826;-78
2023/03/25 05:48:02;;;;;;;3.40;1.00;;;;;;;9.31;77.68;98099.69;5074591;28;40711;-80
2023/03/25 05:50:30;;;;;;;2.07;0.87;;;;;;;9.43;77.09;98105.91;5102618;28;42939;-78
2023/03/25 05:53:00;;;;;;;2.53;0.70;;;;;;;9.50;77.53;98112.47;5080137;28;40588;-77
2023/03/25 05:55:28;;;;;;;3.20;0.60;;;;;;;9.40;77.25;98094.69;5074528;28;39018;-78
2023/03/25 05:57:57;;;;;;;3.10;0.90;;;;;;;9.57;77.31;98124.28;5074147;28;40591;-78
2023/03/25 06:00:25;;;;;;;0.73;0.50;;;;;;;9.57;76.87;98124.28;5074119;28;42819;-79
2023/03/25 06:02:53;;;;;;;1.73;0.70;;;;;;;9.47;77.15;98099.47;5090426;28;41423;-78
2023/03/25 06:05:22;;;;;;;2.87;0.70;;;;;;;9.60;77.48;98110.00;5091425;28;41520;-78
2023/03/25 06:07:50;;;;;;;1.37;0.70;;;;;;;9.61;76.86;98125.78;5074022;28;40212;-79
2023/03/25 06:10:20;;;;;;;2.40;0.70;;;;;;;9.66;77.60;98121.00;5074330;28;41996;-77
2023/03/25 06:12:51;;;;;;;4.40;1.37;;;;;;;9.72;77.04;98125.84;5090840;28;42006;-79
2023/03/25 06:15:27;;;;;;;2.10;0.80;;;;;;;9.71;77.25;98123.31;5088356;28;39694;-79
2023/03/25 06:17:55;;;;;;;1.00;0.60;;;;;;;9.67;77.07;98114.75;5074061;28;40593;-77
2023/03/25 06:20:23;;;;;;;1.93;0.70;;;;;;;9.69;77.73;98130.50;5073641;28;41829;-78
2023/03/25 06:22:51;;;;;;;1.50;0.60;;;;;;;9.60;78.15;98116.16;5073766;28;41271;-78
2023/03/25 06:25:22;;;;;;;4.77;1.10;;;;;;;9.70;78.19;98127.75;5074173;28;40015;-78
2023/03/25 06:27:51;;;;;;;1.53;0.70;;;;;;;9.68;78.35;98127.00;5090039;28;42593;-78
2023/03/25 06:30:20;;;;;;;3.37;1.00;;;;;;;9.54;78.52;98098.06;5073756;28;43632;-78
2023/03/25 06:32:51;;;;;;;2.77;0.80;;;;;;;9.75;78.78;98131.88;5090510;28;42237;-79
2023/03/25 06:35:20;;;;;;;2.57;0.90;;;;;;;9.74;78.31;98120.47;5074176;28;38996;-78
2023/03/25 06:37:48;;;;;;;1.77;1.07;;;;;;;9.74;78.70;98125.75;5090056;28;41539;-78
2023/03/25 06:40:26;;;;;;;1.70;0.60;;;;;;;9.69;78.98;98119.94;5090644;28;43245;-78
2023/03/25 06:42:54;;;;;;;2.90;1.10;;;;;;;9.68;79.16;98105.88;5089710;28;42334;-79
2023/03/25 06:45:34;;;;;;;1.33;1.00;;;;;;;9.78;79.40;98115.78;5088725;28;40275;-79
2023/03/25 06:48:18;;;;;;;3.97;1.00;;;;;;;9.76;80.17;98117.72;5073786;28;41913;-80
2023/03/25 06:50:46;;;;;;;1.97;0.93;;;;;;;9.79;79.90;98117.47;5090895;28;41722;-79
2023/03/25 06:53:14;;;;;;;2.47;1.20;;;;;;;9.85;79.51;98109.97;5091078;28;42267;-77
2023/03/25 06:55:45;;;;;;;1.97;0.80;;;;;;;10.13;79.45;98118.56;5073706;28;41183;-79
2023/03/25 06:58:13;;;;;;;2.60;1.50;;;;;;;10.25;78.48;98100.03;5075066;28;41059;-80
2023/03/25 07:00:41;;;;;;;4.50;1.10;;;;;;;10.38;77.92;98114.06;5077022;28;41839;-79
2023/03/25 07:03:10;;;;;;;2.67;1.10;;;;;;;10.81;77.24;98124.09;5093232;28;42861;-79
2023/03/25 07:05:37;;;;;;;2.03;0.77;;;;;;;11.04;75.59;98131.16;5076962;28;39164;-78
2023/03/25 07:08:05;;;;;;;2.10;1.20;;;;;;;11.18;73.74;98137.19;5076464;28;41813;-80
2023/03/25 07:10:33;;;;;;;2.03;0.70;;;;;;;11.14;73.07;98140.06;5076924;28;41565;-80
2023/03/25 07:13:02;;;;;;;3.33;0.90;;;;;;;12.16;70.61;98145.34;5076584;28;41130;-79
2023/03/25 07:15:30;;;;;;;2.97;0.97;;;;;;;12.08;69.20;98160.19;5094968;28;39803;-80
2023/03/25 07:17:58;;;;;;;4.57;0.93;;;;;;;11.86;68.69;98155.75;5093177;28;41834;-80
2023/03/25 07:20:26;;;;;;;3.77;0.90;;;;;;;11.90;69.24;98156.34;5092559;28;42080;-78
2023/03/25 07:22:54;;;;;;;5.33;1.00;;;;;;;12.37;67.91;98134.78;5076177;28;41041;-79
2023/03/25 07:25:22;;;;;;;3.20;1.10;;;;;;;13.00;65.71;98162.34;5094560;28;40181;-78
2023/03/25 07:27:50;;;;;;;4.33;0.80;;;;;;;14.97;60.73;98172.59;5093062;28;42223;-79
2023/03/25 07:33:28;;;;;;;3.47;1.20;;;;;;;14.22;59.27;98170.47;5073315;28;41663;-79
2023/03/25 07:35:56;;;;;;;3.77;1.30;;;;;;;13.90;58.62;98160.84;5093680;28;40002;-79
2023/03/25 07:38:24;;;;;;;1.63;0.87;;;;;;;13.66;59.33;98185.09;5093943;28;42006;-78
2023/03/25 07:40:52;;;;;;;2.37;0.90;;;;;;;13.14;62.39;98183.34;5093212;28;42895;-81
2023/03/25 07:43:20;;;;;;;4.07;1.30;;;;;;;12.64;64.09;98162.72;5075424;28;41304;-81
2023/03/25 07:46:12;;;;;;;2.70;1.03;;;;;;;12.46;65.23;98171.25;5088302;28;42021;-80
2023/03/25 07:48:40;;;;;;;2.97;1.13;;;;;;;12.43;66.14;98171.47;5075976;28;40665;-81
2023/03/25 07:51:09;;;;;;;3.80;1.03;;;;;;;12.50;66.60;98177.13;5093400;28;43793;-80
2023/03/25 07:53:41;;;;;;;2.43;0.90;;;;;;;12.55;66.62;98175.81;5076046;28;42381;-81
2023/03/25 07:56:10;;;;;;;3.27;1.17;;;;;;;12.52;64.92;98191.97;5076793;28;39091;-79
2023/03/25 07:58:38;;;;;;;3.67;0.83;;;;;;;12.93;63.57;98162.03;5093883;28;41784;-81
2023/03/25 08:01:08;;;;;;;3.13;1.00;;;;;;;13.68;62.19;98197.44;5076114;28;42844;-77
2023/03/25 08:03:38;;;;;;;5.80;1.40;;;;;;;14.79;59.14;98195.63;5093869;28;42335;-82
2023/03/25 08:06:07;;;;;;;3.70;1.20;;;;;;;15.18;57.15;98218.66;5093594;28;39676;-80
2023/03/25 08:08:35;;;;;;;3.03;0.90;;;;;;;15.17;56.25;98208.97;5089859;28;41718;-80
2023/03/25 08:11:03;;;;;;;3.57;1.10;;;;;;;14.93;56.12;98197.88;5092728;28;42135;-80
2023/03/25 08:13:32;;;;;;;3.03;0.93;;;;;;;14.80;55.71;98202.63;5075206;28;42414;-81
2023/03/25 08:16:00;;;;;;;3.33;0.90;;;;;;;14.67;56.02;98218.88;5076188;28;39118;-80
2023/03/25 08:18:28;;;;;;;2.07;1.40;;;;;;;14.96;56.31;98209.09;5075110;28;41898;-80
2023/03/25 08:20:57;;;;;;;3.53;1.27;;;;;;;16.39;53.28;98227.69;5092189;28;42830;-80
2023/03/25 08:23:25;;;;;;;4.23;1.00;;;;;;;17.69;49.94;98202.28;5091715;28;42301;-81
2023/03/25 08:25:53;;;;;;;3.20;1.10;;;;;;;19.47;46.45;98255.00;5075505;28;38802;-79
2023/03/25 08:28:22;;;;;;;2.33;1.00;;;;;;;21.18;43.77;98275.16;5092979;28;41675;-79
2023/03/25 08:30:53;;;;;;;4.97;1.63;;;;;;;21.85;40.56;98251.16;5093501;28;43193;-79
2023/03/25 08:33:21;;;;;;;3.17;1.27;;;;;;;21.13;39.31;98289.19;5074446;28;41162;-79
2023/03/25 08:35:51;;;;;;;4.17;1.40;;;;;;;20.21;41.86;98217.19;5092526;28;40927;-79
2023/03/25 08:38:20;;;;;;;3.63;1.27;;;;;;;20.98;40.66;98264.00;5091040;28;40840;-78
2023/03/25 08:40:48;;;;;;;4.30;1.50;;;;;;;20.52;41.00;98262.19;5092078;28;42549;-79
2023/03/25 08:43:16;;;;;;;3.40;1.17;;;;;;;20.63;41.33;98265.34;5092918;28;42041;-81
2023/03/25 08:45:44;;;;;;;4.27;2.30;;;;;;;20.97;39.06;98270.41;5105551;28;39012;-77
2023/03/25 08:48:12;;;;;;;4.30;1.53;;;;;;;20.32;39.94;98246.41;5102147;28;40758;-79
2023/03/25 08:50:39;;;;;;;4.93;1.87;;;;;;;20.84;39.18;98267.44;5093452;28;43755;-80
2023/03/25 08:53:08;;;;;;;2.73;1.37;;;;;;;21.24;37.92;98262.91;5091885;28;42397;-81
2023/03/25 08:55:37;;;;;;;3.07;1.57;;;;;;;22.07;37.73;98258.38;5091943;28;39786;-82
2023/03/25 08:58:06;;;;;;;5.07;1.33;;;;;;;22.51;36.10;98269.22;5074559;28;41559;-80
2023/03/25 09:00:36;;;;;;;4.20;1.60;;;;;;;23.93;34.35;98259.69;5091637;28;42944;-80
2023/03/25 09:03:05;;;;;;;4.70;1.40;;;;;;;24.68;32.91;98284.22;5074779;28;41391;-80
2023/03/25 09:05:32;;;;;;;5.77;1.60;;;;;;;26.03;31.58;98289.72;5092010;28;40077;-80
2023/03/25 09:08:01;;;;;;;4.10;1.53;;;;;;;28.36;29.18;98310.41;5074473;28;40773;-80
2023/03/25 09:10:29;;;;;;;4.32;2.00;;;;;;;29.14;27.25;98297.91;5074937;28;41758;-80
2023/03/25 09:12:58;;;;;;;5.10;2.27;;;;;;;28.66;25.52;98327.75;5091708;28;42457;-80
2023/03/25 09:15:26;;;;;;;3.83;1.55;;;;;;;29.30;25.66;98334.66;5091634;28;40951;-81
2023/03/25 09:17:53;;;;;;;3.75;1.50;;;;;;;30.14;25.82;98319.25;5091744;28;41824;-80
2023/03/25 09:20:21;;;;;;;4.43;1.47;;;;;;;29.52;25.09;98329.56;5089873;28;42864;-81
2023/03/25 09:22:49;;;;;;;5.33;1.63;;;;;;;28.29;27.21;98312.38;5074588;28;41066;-82
2023/03/25 09:25:17;;;;;;;5.77;1.87;;;;;;;27.19;28.30;98303.56;5091303;28;39908;-80
2023/03/25 09:27:45;;;;;;;4.10;1.50;;;;;;;26.09;29.21;98288.03;5091705;28;41820;-81
2023/03/25 09:30:15;;;;;;;3.70;1.37;;;;;;;24.66;30.61;98266.50;5074169;28;41710;-80
2023/03/25 09:32:43;;;;;;;4.67;1.77;;;;;;;23.44;32.03;98248.81;5091229;28;41618;-80
2023/03/25 09:35:11;;;;;;;5.63;1.30;;;;;;;22.96;32.91;98256.56;5091159;28;40124;-80
2023/03/25 09:37:39;;;;;;;3.63;1.20;;;;;;;22.36;33.82;98233.31;5074306;28;40869;-80
2023/03/25 09:40:08;;;;;;;4.80;1.60;;;;;;;22.20;34.76;98233.47;5090607;28;43732;-81
2023/03/25 09:42:46;;;;;;;4.80;1.60;;;;;;;21.84;35.05;98225.22;5091500;28;41170;-80
2023/03/25 09:45:33;;;;;;;2.93;1.30;;;;;;;22.42;33.75;98221.78;5074376;28;38911;-80
2023/03/25 09:48:06;;;;;;;6.07;1.70;;;;;;;21.55;35.03;98220.56;5091119;28;42771;-79
2023/03/25 09:50:35;;;;;;;3.90;1.60;;;;;;;20.58;35.76;98231.91;5091267;28;43237;-79
2023/03/25 09:53:06;;;;;;;4.00;1.40;;;;;;;19.57;37.96;98210.91;5091036;28;42315;-78
2023/03/25 09:55:40;;;;;;;3.70;1.57;;;;;;;18.75;39.85;98211.78;5089210;28;40909;-80
2023/03/25 09:58:26;;;;;;;3.80;1.27;;;;;;;19.22;41.87;98165.56;5074417;28;40930;-79
2023/03/25 10:01:00;;;;;;;2.97;1.27;;;;;;;20.58;39.62;98202.31;5091392;28;42897;-79
2023/03/25 10:03:34;;;;;;;2.30;0.93;;;;;;;21.62;38.82;98201.84;5088248;28;42465;-80
2023/03/25 10:06:21;;;;;;;3.83;1.00;;;;;;;22.14;36.93;98199.16;5089250;28;40952;-80
2023/03/25 10:09:10;;;;;;;2.27;0.97;;;;;;;22.84;35.89;98207.63;5089595;28;42613;-79
2023/03/25 10:11:47;;;;;;;2.30;1.10;;;;;;;25.20;33.01;98209.66;5088001;28;42392;-80
2023/03/25 10:14:21;;;;;;;4.17;1.10;;;;;;;26.54;30.22;98237.50;5088575;28;43038;-80
2023/03/25 10:17:04;;;;;;;5.00;1.50;;;;;;;26.50;29.71;98222.66;5073950;28;39565;-81
2023/03/25 10:19:56;;;;;;;4.03;1.47;;;;;;;26.67;29.88;98218.44;5073069;28;41768;-80
2023/03/25 10:22:28;;;;;;;2.67;1.03;;;;;;;26.03;30.34;98226.47;5087963;28;42661;-80
2023/03/25 10:25:00;;;;;;;3.43;1.20;;;;;;;24.84;31.59;98214.50;5090847;28;40921;-80
2023/03/25 10:27:35;;;;;;;3.53;1.20;;;;;;;23.54;34.30;98189.88;5091020;28;39170;-80
2023/03/25 10:30:12;;;;;;;3.37;1.43;;;;;;;22.46;36.04;98142.13;5090604;28;40969;-81
2023/03/25 10:32:45;;;;;;;3.50;1.10;;;;;;;21.54;36.73;98173.09;5076171;28;41707;-79
2023/03/25 10:35:19;;;;;;;2.83;1.10;;;;;;;20.11;39.76;98148.50;5094585;28;42086;-79
2023/03/25 10:37:50;;;;;;;4.37;1.03;;;;;;;18.71;41.18;98124.56;5090990;28;40942;-78
2023/03/25 10:40:24;;;;;;;2.23;1.00;;;;;;;17.47;44.23;98142.03;5076848;28;40773;-79
2023/03/25 10:42:59;;;;;;;3.40;1.17;;;;;;;16.72;47.73;98116.66;5077200;28;41596;-79
2023/03/25 10:45:29;;;;;;;1.60;0.90;;;;;;;16.12;51.02;98096.78;5076611;28;41355;-80
2023/03/25 10:48:06;;;;;;;4.27;1.13;;;;;;;15.58;53.82;98070.91;5095135;28;40253;-78
2023/03/25 10:50:34;;;;;;;3.17;1.20;;;;;;;15.33;54.82;98081.19;5077053;28;41925;-79
2023/03/25 10:53:03;;;;;;;1.93;0.90;;;;;;;15.02;55.77;98074.38;5093766;28;41710;-78
2023/03/25 10:55:35;;;;;;;1.63;0.80;;;;;;;14.90;56.66;98064.84;5093730;28;41631;-78
2023/03/25 10:58:05;;;;;;;1.33;0.70;;;;;;;15.81;56.27;98034.84;5077075;28;38910;-79
2023/03/25 11:00:33;;;;;;;3.17;0.87;;;;;;;16.90;55.84;98094.44;5076334;28;40953;-77
2023/03/25 11:03:04;;;;;;;1.60;0.70;;;;;;;16.58;52.82;98108.28;5093338;28;42870;-78
2023/03/25 11:05:34;;;;;;;2.20;0.63;;;;;;;15.96;54.83;98118.78;5090843;28;42293;-77
2023/03/25 11:08:04;;;;;;;0.90;0.60;;;;;;;15.09;56.83;98115.47;5093162;28;41492;-78
2023/03/25 11:10:34;;;;;;;2.70;0.80;;;;;;;15.05;60.01;98084.75;5076537;28;41916;-81
2023/03/25 11:13:03;;;;;;;2.47;1.10;;;;;;;15.62;59.07;98104.31;5093125;28;42676;-77
2023/03/25 11:15:33;;;;;;;3.27;0.80;;;;;;;17.15;58.66;98090.97;5093347;28;41365;-77
2023/03/25 11:18:08;;;;;;;1.90;0.50;;;;;;;18.03;55.51;98081.81;5076425;28;39727;-78
2023/03/25 11:20:39;;;;;;;1.00;0.60;;;;;;;21.11;50.87;98126.13;5093240;28;42281;-80
2023/03/25 11:23:14;;;;;;;1.43;0.50;;;;;;;21.08;45.81;98153.41;5075907;28;42759;-82
2023/03/25 11:25:43;;;;;;;2.43;1.17;;;;;;;20.22;46.50;98165.09;5090141;28;42431;-78
2023/03/25 11:28:14;;;;;;;1.27;0.73;;;;;;;19.05;47.72;98134.31;5075786;28;39962;-79
2023/03/25 11:31:06;;;;;;;3.20;0.60;;;;;;;18.43;50.21;98148.09;5093386;28;40736;-78
2023/03/25 11:33:37;;;;;;;3.57;0.70;;;;;;;17.91;49.39;98166.13;5090344;28;43412;-79
2023/03/25 11:36:22;;;;;;;1.60;0.70;;;;;;;17.12;52.73;98139.41;5092985;28;42168;-79
2023/03/25 11:38:57;;;;;;;0.80;0.60;;;;;;;16.05;54.98;98159.81;5092136;28;40170;-78
2023/03/25 11:41:29;;;;;;;2.83;0.80;;;;;;;15.09;57.89;98182.16;5100136;28;41965;-77
2023/03/25 11:43:57;;;;;;;3.67;0.80;;;;;;;14.14;57.73;98175.63;5094083;28;42614;-78
2023/03/25 11:46:25;;;;;;;1.63;0.60;;;;;;;13.32;58.14;98149.06;5094805;28;43218;-78
2023/03/25 11:48:55;;;;;;;1.30;0.70;;;;;;;12.89;59.54;98109.25;5092768;28;40005;-77
2023/03/25 11:51:25;;;;;;;3.63;0.70;;;;;;;12.67;60.27;98101.38;5093945;28;41869;-78
2023/03/25 11:53:57;;;;;;;4.27;1.10;;;;;;;13.39;61.29;98128.09;5091632;28;41851;-77
2023/03/25 11:56:34;;;;;;;2.10;0.77;;;;;;;16.31;57.25;98111.88;5075950;28;41113;-78
2023/03/25 11:59:07;;;;;;;1.83;1.10;;;;;;;18.74;53.25;98140.34;5075245;28;39852;-79